Time;durP1;ratioP1;P1;durP2;ratioP2;P2;SDS_P1;SDS_P2;PMS_P1;PMS_P2;Temp;Humidity;BMP_temperature;BMP_pressure;BME280_temperature;BME280_humidity;BME280_pressure;Samples;Min_cycle;Max_cycle;Signal;HPM_P1;HPM_P2
2023/03/05 00:01:08;;;;;;;4.97;2.50;;;;;;;4.65;49.49;100023.72;5004168;27;99647;-88
2023/03/05 00:03:34;;;;;;;6.00;2.80;;;;;;;4.61;49.49;100022.03;5033909;27;96774;-88
2023/03/05 00:05:59;;;;;;;8.20;2.97;;;;;;;4.78;49.99;100046.97;5002214;27;96770;-88
2023/03/05 00:08:26;;;;;;;4.90;2.70;;;;;;;4.84;49.92;100046.88;5003917;27;100808;-86
2023/03/05 00:11:03;;;;;;;5.90;2.60;;;;;;;4.80;50.78;100033.06;5017207;27;101725;-87
2023/03/05 00:13:29;;;;;;;5.30;2.60;;;;;;;4.71;50.21;100021.03;5009706;27;97017;-82
2023/03/05 00:15:55;;;;;;;8.33;2.60;;;;;;;4.75;50.83;100035.72;5016988;28;96785;-86
2023/03/05 00:18:21;;;;;;;8.50;2.80;;;;;;;4.76;50.88;100034.81;5035422;27;100564;-88
2023/03/05 00:20:46;;;;;;;6.93;2.60;;;;;;;4.81;50.56;100033.91;5003143;27;101123;-89
2023/03/05 00:23:12;;;;;;;6.77;2.30;;;;;;;4.65;50.63;100017.66;5034751;27;97141;-90
2023/03/05 00:25:39;;;;;;;7.47;2.97;;;;;;;4.64;51.44;100032.41;5016537;27;96879;-88
2023/03/05 00:28:06;;;;;;;7.73;2.80;;;;;;;4.54;52.06;99997.03;5003190;27;101012;-88
2023/03/05 00:30:32;;;;;;;6.10;2.30;;;;;;;4.69;51.42;100025.41;5016257;28;99729;-88
2023/03/05 00:32:58;;;;;;;7.43;2.83;;;;;;;4.75;51.23;100014.06;5000005;28;97424;-89
2023/03/05 00:35:24;;;;;;;6.40;3.30;;;;;;;4.77;50.61;100017.50;5000207;28;97300;-89
2023/03/05 00:37:49;;;;;;;6.77;3.00;;;;;;;4.66;50.89;99993.41;5016114;28;101531;-88
2023/03/05 00:40:15;;;;;;;4.90;2.93;;;;;;;4.80;51.01;99998.34;5017819;27;101171;-85
2023/03/05 00:42:41;;;;;;;4.87;2.37;;;;;;;4.60;52.14;99994.34;5002731;28;96837;-91
2023/03/05 00:45:08;;;;;;;5.67;2.53;;;;;;;4.63;51.69;99998.63;5024978;27;97253;-88
2023/03/05 00:47:34;;;;;;;10.27;3.20;;;;;;;4.75;51.38;100003.66;5033779;27;97545;-88
2023/03/05 00:50:00;;;;;;;9.47;3.63;;;;;;;4.79;50.80;100000.09;5003113;27;101861;-88
2023/03/05 00:52:26;;;;;;;9.40;3.80;;;;;;;4.74;51.33;99999.31;5014436;27;98333;-88
2023/03/05 00:54:51;;;;;;;8.10;3.87;;;;;;;4.69;51.65;99993.34;5018159;28;96876;-86
2023/03/05 00:57:17;;;;;;;8.10;3.70;;;;;;;4.76;51.91;99998.41;5013676;28;98596;-88
2023/03/05 00:59:43;;;;;;;8.17;3.73;;;;;;;4.67;51.59;99975.16;5013437;28;101003;-88
2023/03/05 01:02:09;;;;;;;7.53;3.30;;;;;;;4.78;51.72;99988.00;4995699;28;97904;-89
2023/03/05 01:04:35;;;;;;;8.03;3.43;;;;;;;4.77;52.09;99986.28;5016475;27;98383;-88
2023/03/05 01:07:00;;;;;;;7.27;3.30;;;;;;;4.74;52.05;99987.19;4994745;27;101369;-88
2023/03/05 01:09:26;;;;;;;10.33;3.10;;;;;;;4.75;52.02;99982.84;5012781;27;101195;-88
2023/03/05 01:11:52;;;;;;;6.30;2.90;;;;;;;4.64;52.28;99979.53;5013954;27;97476;-86
2023/03/05 01:14:19;;;;;;;6.97;3.20;;;;;;;4.55;52.91;99977.94;5007594;27;97377;-88
2023/03/05 01:16:44;;;;;;;6.37;3.77;;;;;;;4.67;52.28;99969.09;5011629;28;97531;-89
2023/03/05 01:19:11;;;;;;;9.23;4.33;;;;;;;4.64;52.46;99970.00;5005337;28;100859;-89
2023/03/05 01:21:37;;;;;;;9.17;5.50;;;;;;;4.50;53.00;99969.34;5011367;28;97411;-86
2023/03/05 01:24:03;;;;;;;9.73;5.30;;;;;;;4.57;53.23;99968.38;5008938;27;97162;-87
2023/03/05 01:26:28;;;;;;;9.40;5.13;;;;;;;4.49;53.84;99965.03;4996381;28;100235;-82
2023/03/05 01:28:54;;;;;;;12.57;6.37;;;;;;;4.43;53.36;99945.19;5013836;28;99737;-88
2023/03/05 01:31:20;;;;;;;11.37;5.83;;;;;;;4.52;53.40;99944.19;4989260;27;96914;-89
2023/03/05 01:33:46;;;;;;;11.80;5.67;;;;;;;4.48;53.32;99935.59;4997177;28;98099;-89
2023/03/05 01:36:15;;;;;;;11.17;6.10;;;;;;;4.28;53.55;99903.84;4999943;27;99947;-88
2023/03/05 01:38:46;;;;;;;9.03;4.83;;;;;;;4.43;53.90;99920.94;5012955;28;101457;-90
2023/03/05 01:41:12;;;;;;;10.00;4.83;;;;;;;4.61;53.68;99943.19;5004003;27;97229;-88
2023/03/05 01:43:39;;;;;;;8.97;4.33;;;;;;;4.67;53.38;99943.94;5025547;27;97159;-88
2023/03/05 01:46:16;;;;;;;9.27;3.47;;;;;;;4.69;53.60;99941.34;4997196;28;100184;-89
2023/03/05 01:48:45;;;;;;;9.73;3.77;;;;;;;4.69;53.47;99939.59;5015503;27;101946;-85
2023/03/05 01:51:11;;;;;;;6.77;3.47;;;;;;;4.61;53.63;99925.00;5014754;27;97264;-88
2023/03/05 01:53:36;;;;;;;8.63;4.40;;;;;;;4.63;54.13;99925.84;4998363;27;97320;-88
2023/03/05 01:56:02;;;;;;;11.73;5.30;;;;;;;4.62;53.73;99924.97;5013185;28;98717;-89
2023/03/05 01:58:28;;;;;;;10.17;5.07;;;;;;;4.59;53.80;99930.22;5030867;27;100146;-88
2023/03/05 02:00:54;;;;;;;9.93;4.83;;;;;;;4.57;54.37;99936.31;4998515;27;97239;-88
2023/03/05 02:03:21;;;;;;;9.63;4.07;;;;;;;4.61;54.25;99936.25;4996958;27;96908;-89
2023/03/05 02:05:47;;;;;;;10.03;4.90;;;;;;;4.61;54.30;99930.19;5004302;27;98138;-89
2023/03/05 02:08:15;;;;;;;12.43;4.73;;;;;;;4.62;54.19;99924.09;4998847;27;101460;-88
2023/03/05 02:10:52;;;;;;;10.47;4.00;;;;;;;4.63;54.53;99931.03;5012083;28;97241;-87
2023/03/05 02:13:21;;;;;;;11.07;5.40;;;;;;;4.66;54.92;99933.59;5022325;27;96808;-88
2023/03/05 02:15:48;;;;;;;11.10;5.50;;;;;;;4.61;54.79;99925.84;4989532;27;99904;-89
2023/03/05 02:18:15;;;;;;;11.60;5.77;;;;;;;4.57;55.27;99929.41;4995806;28;100390;-89
2023/03/05 02:20:48;;;;;;;22.27;8.27;;;;;;;4.56;56.05;99932.00;5009797;28;97210;-86
2023/03/05 02:23:15;;;;;;;22.40;9.93;;;;;;;4.60;56.10;99923.28;5034312;27;96908;-89
2023/03/05 02:25:40;;;;;;;22.17;9.23;;;;;;;4.61;55.92;99932.81;5009419;28;100571;-88
2023/03/05 02:28:25;;;;;;;17.50;7.70;;;;;;;4.55;56.81;99920.75;5015895;27;100720;-89
2023/03/05 02:30:51;;;;;;;15.20;7.50;;;;;;;4.50;56.95;99913.00;5035609;27;97879;-89
2023/03/05 02:33:18;;;;;;;11.80;5.73;;;;;;;4.43;57.02;99906.22;5002567;27;97098;-86
2023/03/05 02:35:45;;;;;;;11.20;5.40;;;;;;;4.54;57.30;99922.50;4993885;27;101510;-88
2023/03/05 02:38:12;;;;;;;11.53;5.17;;;;;;;4.45;57.37;99903.56;5010640;27;101090;-88
2023/03/05 02:40:38;;;;;;;12.93;5.00;;;;;;;4.47;58.13;99920.84;5023727;27;97214;-88
2023/03/05 02:43:04;;;;;;;10.53;4.80;;;;;;;4.35;58.23;99900.25;5006081;28;97170;-86
2023/03/05 02:45:30;;;;;;;10.00;4.10;;;;;;;4.45;58.21;99906.16;5020062;27;101579;-89
2023/03/05 02:47:55;;;;;;;8.70;4.27;;;;;;;4.49;58.07;99916.50;5041121;27;98971;-87
2023/03/05 02:50:22;;;;;;;8.50;4.10;;;;;;;4.48;57.85;99913.91;5011871;27;97356;-86
2023/03/05 02:52:47;;;;;;;11.17;4.73;;;;;;;4.35;57.83;99909.81;5010148;27;97222;-85
2023/03/05 02:55:15;;;;;;;8.30;3.57;;;;;;;4.39;58.30;99898.47;5010609;27;100466;-88
2023/03/05 02:57:42;;;;;;;9.47;3.40;;;;;;;4.34;57.92;99901.16;5006855;27;100587;-89
2023/03/05 03:00:08;;;;;;;6.07;2.77;;;;;;;4.37;57.43;99898.50;5004420;27;97517;-88
2023/03/05 03:02:34;;;;;;;5.73;2.70;;;;;;;4.24;57.10;99884.81;4995663;28;96902;-87
2023/03/05 03:04:59;;;;;;;8.87;3.27;;;;;;;4.30;57.18;99902.94;5029455;27;98079;-88
2023/03/05 03:07:25;;;;;;;9.97;3.30;;;;;;;4.32;57.34;99895.13;4993569;28;101129;-89
2023/03/05 03:09:50;;;;;;;6.83;2.47;;;;;;;4.25;56.92;99898.69;5009255;27;97134;-86
2023/03/05 03:12:16;;;;;;;5.90;2.50;;;;;;;4.26;56.97;99890.00;5008324;27;97108;-88
2023/03/05 03:14:42;;;;;;;5.10;2.80;;;;;;;4.29;56.87;99898.63;4998407;27;101648;-90
2023/03/05 03:17:16;;;;;;;5.33;1.90;;;;;;;4.17;56.19;99874.56;5010504;28;98453;-85
2023/03/05 03:19:42;;;;;;;4.37;1.90;;;;;;;4.24;56.16;99890.03;4998309;27;97240;-89
2023/03/05 03:22:08;;;;;;;4.93;2.10;;;;;;;4.05;55.63;99879.06;5011707;28;97010;-85
2023/03/05 03:24:35;;;;;;;2.67;1.60;;;;;;;4.12;55.34;99861.63;5002913;27;101304;-84
2023/03/05 03:27:01;;;;;;;4.43;1.70;;;;;;;4.03;55.36;99867.81;5033071;27;98443;-88
2023/03/05 03:29:27;;;;;;;6.47;1.93;;;;;;;3.98;55.31;99846.25;5034792;27;97303;-88
2023/03/05 03:31:52;;;;;;;6.77;2.47;;;;;;;4.04;55.90;99863.47;5032299;27;97318;-87
2023/03/05 03:34:18;;;;;;;6.43;2.90;;;;;;;4.02;56.28;99860.94;5027882;27;101138;-85
2023/03/05 03:36:46;;;;;;;8.60;3.80;;;;;;;3.95;56.17;99861.88;5014719;27;101120;-88
2023/03/05 03:39:13;;;;;;;10.83;4.57;;;;;;;3.91;55.91;99841.19;5035253;27;97171;-89
2023/03/05 03:41:43;;;;;;;7.83;3.50;;;;;;;3.81;55.36;99836.13;5032151;27;96803;-89
2023/03/05 03:44:09;;;;;;;7.50;3.37;;;;;;;3.98;55.04;99845.41;5034772;27;98296;-89
2023/03/05 03:46:38;;;;;;;7.87;4.00;;;;;;;3.94;55.01;99844.59;5010668;27;101627;-83
2023/03/05 03:49:05;;;;;;;8.93;4.20;;;;;;;3.90;54.89;99834.25;5020808;27;96849;-88
2023/03/05 03:51:31;;;;;;;6.97;3.60;;;;;;;3.93;54.90;99824.72;5033439;27;97028;-88
2023/03/05 03:53:57;;;;;;;8.37;4.13;;;;;;;4.02;54.25;99832.34;5035516;27;100916;-87
2023/03/05 03:56:22;;;;;;;7.77;4.23;;;;;;;4.05;54.22;99827.09;5035913;27;99824;-89
2023/03/05 03:58:50;;;;;;;5.40;3.30;;;;;;;3.93;54.31;99806.53;5037358;27;97615;-87
2023/03/05 04:01:17;;;;;;;6.13;3.07;;;;;;;3.93;54.06;99818.66;5017278;27;96965;-89
2023/03/05 04:03:43;;;;;;;6.33;3.00;;;;;;;3.92;54.13;99822.13;5033070;27;101408;-88
2023/03/05 04:06:08;;;;;;;4.00;1.97;;;;;;;3.92;54.46;99825.56;5027633;27;100111;-85
2023/03/05 04:08:34;;;;;;;5.83;2.40;;;;;;;3.89;54.72;99802.25;5055591;27;96997;-84
2023/03/05 04:11:01;;;;;;;4.73;2.20;;;;;;;3.84;54.75;99791.09;5026585;27;96797;-88
2023/03/05 04:13:26;;;;;;;4.47;2.30;;;;;;;4.02;54.77;99821.97;5031184;27;100201;-87
2023/03/05 04:15:52;;;;;;;6.13;2.83;;;;;;;3.83;54.98;99812.72;5049771;27;100663;-88
2023/03/05 04:18:18;;;;;;;6.57;2.30;;;;;;;3.76;55.60;99798.97;5040694;27;97320;-87
2023/03/05 04:20:43;;;;;;;5.73;2.50;;;;;;;3.84;55.65;99799.72;5009513;27;97280;-87
2023/03/05 04:23:09;;;;;;;6.63;3.00;;;;;;;3.82;55.54;99801.47;5012453;27;101105;-87
2023/03/05 04:25:34;;;;;;;8.47;3.10;;;;;;;3.75;55.62;99793.78;5054102;27;97991;-82
2023/03/05 04:28:00;;;;;;;5.57;2.83;;;;;;;3.66;56.56;99793.94;5036394;27;96761;-89
2023/03/05 04:30:26;;;;;;;7.43;2.87;;;;;;;3.60;56.81;99774.13;5033382;27;97090;-90
2023/03/05 04:32:51;;;;;;;5.30;2.47;;;;;;;3.73;56.90;99782.59;5032700;27;100359;-89
2023/03/05 04:35:17;;;;;;;5.87;3.00;;;;;;;3.63;57.26;99780.09;5031072;27;100835;-88
2023/03/05 04:37:43;;;;;;;8.10;2.87;;;;;;;3.66;57.68;99774.03;5033377;27;97286;-87
2023/03/05 04:40:10;;;;;;;8.03;2.97;;;;;;;3.56;57.50;99762.91;5010851;27;97258;-85
2023/03/05 04:42:36;;;;;;;8.23;3.03;;;;;;;3.58;57.47;99766.38;5016981;27;101520;-83
2023/03/05 04:45:02;;;;;;;7.57;3.33;;;;;;;3.70;57.75;99762.72;5018082;27;99929;-88
2023/03/05 04:47:27;;;;;;;6.03;2.17;;;;;;;3.77;57.43;99763.47;5037148;27;96758;-88
2023/03/05 04:49:53;;;;;;;5.03;2.40;;;;;;;3.78;57.68;99768.66;5017654;27;96974;-89
2023/03/05 04:52:18;;;;;;;5.40;2.03;;;;;;;3.65;57.63;99763.69;5018788;27;100263;-84
2023/03/05 04:54:44;;;;;;;5.40;2.37;;;;;;;3.67;58.09;99759.31;5046626;27;97918;-88
2023/03/05 04:57:10;;;;;;;5.60;2.40;;;;;;;3.69;58.13;99761.00;5021782;27;97257;-89
2023/03/05 04:59:36;;;;;;;5.30;2.10;;;;;;;3.58;58.11;99726.56;5037893;27;97128;-84
2023/03/05 05:02:02;;;;;;;4.40;2.27;;;;;;;3.62;58.46;99756.78;5017673;27;100505;-89
2023/03/05 05:04:28;;;;;;;6.80;3.03;;;;;;;3.52;58.64;99745.69;5031875;27;99753;-87
2023/03/05 05:06:56;;;;;;;5.07;1.90;;;;;;;3.57;58.44;99736.06;5033974;27;97340;-87
2023/03/05 05:09:22;;;;;;;5.90;2.37;;;;;;;3.62;58.61;99743.81;5017574;27;97221;-87
2023/03/05 05:11:47;;;;;;;5.93;2.80;;;;;;;3.57;58.83;99733.47;5024923;27;101124;-87
2023/03/05 05:14:13;;;;;;;3.77;2.10;;;;;;;3.62;58.79;99739.47;5015264;27;101658;-88
2023/03/05 05:16:38;;;;;;;7.40;2.03;;;;;;;3.73;58.78;99743.66;5054741;27;97392;-88
2023/03/05 05:19:04;;;;;;;6.77;2.53;;;;;;;3.70;58.53;99741.09;5025291;27;96809;-87
2023/03/05 05:21:29;;;;;;;7.67;2.37;;;;;;;3.68;58.56;99737.66;5022659;27;102027;-88
2023/03/05 05:23:55;;;;;;;4.53;2.20;;;;;;;3.58;59.12;99742.16;5019715;27;101512;-88
2023/03/05 05:26:21;;;;;;;3.60;1.70;;;;;;;3.64;59.38;99744.66;5034027;27;96763;-89
2023/03/05 05:28:46;;;;;;;5.43;2.17;;;;;;;3.58;59.68;99736.97;5036642;27;97371;-88
2023/03/05 05:31:13;;;;;;;3.83;1.60;;;;;;;3.54;59.67;99725.75;5053422;27;97976;-89
2023/03/05 05:33:39;;;;;;;5.13;2.20;;;;;;;3.69;59.71;99747.16;5035932;27;101748;-86
2023/03/05 05:36:07;;;;;;;7.70;2.87;;;;;;;3.62;60.03;99742.06;5017529;27;97438;-87
2023/03/05 05:38:34;;;;;;;7.00;2.23;;;;;;;3.70;60.27;99743.72;5034708;27;97459;-88
2023/03/05 05:41:04;;;;;;;6.67;2.40;;;;;;;3.69;60.42;99736.78;5016153;27;101228;-87
2023/03/05 05:43:30;;;;;;;5.10;2.20;;;;;;;3.70;60.72;99741.09;5027532;27;101518;-90
2023/03/05 05:46:04;;;;;;;7.83;3.27;;;;;;;3.62;60.82;99715.25;5038194;27;97694;-88
2023/03/05 05:48:31;;;;;;;6.70;2.53;;;;;;;3.77;60.63;99735.78;5053843;27;96740;-88
2023/03/05 05:50:57;;;;;;;7.67;2.67;;;;;;;3.75;61.09;99736.69;5014391;27;101473;-85
2023/03/05 05:53:23;;;;;;;5.93;2.57;;;;;;;3.74;61.38;99737.56;5020677;27;100848;-87
2023/03/05 05:55:49;;;;;;;6.73;2.53;;;;;;;3.67;60.73;99715.19;5018748;27;97460;-87
2023/03/05 05:58:14;;;;;;;10.20;3.07;;;;;;;3.72;61.43;99732.38;5035248;27;96895;-87
2023/03/05 06:00:40;;;;;;;7.93;2.87;;;;;;;3.77;61.55;99730.59;5031735;27;101288;-84
2023/03/05 06:03:06;;;;;;;6.83;2.73;;;;;;;3.72;61.73;99724.59;5016184;27;100518;-88
2023/03/05 06:05:33;;;;;;;10.33;4.00;;;;;;;3.78;61.92;99731.44;5033740;27;97377;-88
2023/03/05 06:07:58;;;;;;;11.37;3.87;;;;;;;3.71;62.56;99737.63;5032447;27;97193;-88
2023/03/05 06:10:24;;;;;;;12.93;4.90;;;;;;;3.74;63.25;99735.81;5002429;27;101109;-89
2023/03/05 06:12:49;;;;;;;14.70;5.67;;;;;;;3.67;64.41;99716.06;5029273;27;101335;-87
2023/03/05 06:15:15;;;;;;;13.17;5.60;;;;;;;3.79;65.02;99735.78;5023997;27;97910;-86
2023/03/05 06:17:41;;;;;;;12.53;6.43;;;;;;;3.79;65.03;99727.97;5052395;27;98198;-86
2023/03/05 06:20:07;;;;;;;16.90;7.90;;;;;;;3.76;65.03;99720.25;5031678;27;99129;-90
2023/03/05 06:22:37;;;;;;;12.60;5.50;;;;;;;3.69;65.52;99698.69;5051768;27;101338;-89
2023/03/05 06:25:04;;;;;;;11.23;4.53;;;;;;;3.78;65.41;99721.06;5028546;27;96788;-89
2023/03/05 06:27:33;;;;;;;8.70;4.77;;;;;;;3.70;65.43;99703.03;5018172;27;97068;-89
2023/03/05 06:29:58;;;;;;;11.07;5.13;;;;;;;3.67;65.81;99699.63;5032860;27;98573;-89
2023/03/05 06:32:24;;;;;;;11.27;4.90;;;;;;;3.78;65.34;99716.75;5016574;27;101129;-87
2023/03/05 06:34:50;;;;;;;15.13;5.00;;;;;;;3.79;65.02;99708.06;5031135;27;97096;-87
2023/03/05 06:37:15;;;;;;;13.67;5.20;;;;;;;3.84;65.18;99716.63;5017272;27;96871;-89
2023/03/05 06:39:41;;;;;;;14.47;5.33;;;;;;;3.75;65.15;99710.72;5042773;27;97058;-84
2023/03/05 06:42:07;;;;;;;16.03;5.70;;;;;;;3.76;65.14;99709.84;5037780;27;98824;-85
2023/03/05 06:44:32;;;;;;;12.43;5.93;;;;;;;3.69;65.30;99697.84;5042570;27;96845;-89
2023/03/05 06:46:58;;;;;;;15.23;5.70;;;;;;;3.71;65.56;99701.28;5039460;27;97250;-87
2023/03/05 06:49:23;;;;;;;15.10;6.30;;;;;;;3.76;65.40;99708.13;5030212;27;98443;-88
2023/03/05 06:51:49;;;;;;;16.53;6.10;;;;;;;3.73;65.33;99717.69;5017394;27;101263;-86
2023/03/05 06:54:15;;;;;;;15.50;5.50;;;;;;;3.68;66.02;99714.31;5029934;27;97542;-87
2023/03/05 06:56:45;;;;;;;15.20;5.80;;;;;;;3.79;65.78;99720.19;5021058;27;97227;-84
2023/03/05 06:59:12;;;;;;;19.83;5.47;;;;;;;3.86;66.12;99724.38;5015248;27;100216;-89
2023/03/05 07:01:38;;;;;;;18.37;6.17;;;;;;;3.84;66.31;99713.19;5014188;27;99643;-84
2023/03/05 07:04:04;;;;;;;15.57;5.83;;;;;;;3.87;65.80;99715.75;5033323;27;97062;-89
2023/03/05 07:06:36;;;;;;;17.33;6.30;;;;;;;3.92;65.69;99715.66;5032217;27;96891;-87
2023/03/05 07:09:04;;;;;;;15.80;5.80;;;;;;;3.92;65.60;99716.50;5032924;27;101127;-88
2023/03/05 07:11:30;;;;;;;17.63;5.77;;;;;;;3.94;65.55;99708.69;5032604;27;101253;-85
2023/03/05 07:13:55;;;;;;;13.63;5.60;;;;;;;3.84;65.35;99688.09;5007306;27;97040;-86
2023/03/05 07:16:30;;;;;;;13.10;4.90;;;;;;;4.06;65.36;99714.53;5017930;27;97152;-89
2023/03/05 07:18:57;;;;;;;19.37;7.10;;;;;;;4.08;64.69;99720.56;5017268;27;102122;-88
2023/03/05 07:21:28;;;;;;;16.73;5.47;;;;;;;4.07;64.07;99715.38;5035275;27;101629;-89
2023/03/05 07:23:55;;;;;;;16.20;6.23;;;;;;;4.17;63.78;99723.88;5017385;27;96740;-89
2023/03/05 07:26:21;;;;;;;15.07;6.80;;;;;;;4.15;63.28;99707.47;5020926;27;97145;-89
2023/03/05 07:28:47;;;;;;;14.80;5.43;;;;;;;4.14;62.55;99711.81;5021709;27;97863;-88
2023/03/05 07:31:15;;;;;;;16.20;6.00;;;;;;;4.14;62.28;99710.97;5012613;27;100902;-86
2023/03/05 07:33:40;;;;;;;15.83;6.00;;;;;;;4.12;61.92;99710.13;5024855;27;97174;-85
2023/03/05 07:36:08;;;;;;;16.17;6.10;;;;;;;4.03;61.48;99696.41;5025057;27;97011;-82
2023/03/05 07:38:33;;;;;;;14.27;5.93;;;;;;;4.20;61.50;99710.84;5012576;27;101519;-84
2023/03/05 07:41:04;;;;;;;11.67;5.60;;;;;;;4.26;61.21;99710.72;5032248;27;101900;-81
2023/03/05 07:43:29;;;;;;;16.30;4.47;;;;;;;4.27;60.43;99710.69;5016317;27;97046;-87
2023/03/05 07:45:55;;;;;;;12.47;4.07;;;;;;;4.27;59.94;99713.28;5014895;27;99061;-87
2023/03/05 07:48:20;;;;;;;12.70;2.97;;;;;;;4.23;59.11;99701.25;5028036;27;100219;-82
2023/03/05 07:50:46;;;;;;;12.20;3.70;;;;;;;4.26;59.53;99697.75;5032130;27;100707;-82
2023/03/05 07:53:13;;;;;;;12.77;3.43;;;;;;;4.29;59.50;99703.72;5035230;27;97144;-80
2023/03/05 07:55:45;;;;;;;11.57;3.80;;;;;;;4.29;58.99;99682.09;5034393;27;96954;-83
2023/03/05 07:58:12;;;;;;;11.13;3.10;;;;;;;4.44;57.71;99701.75;5031972;27;100269;-87
2023/03/05 08:00:37;;;;;;;11.03;3.13;;;;;;;4.44;58.05;99692.19;5029566;27;100002;-86
2023/03/05 08:03:03;;;;;;;9.13;2.67;;;;;;;4.44;57.55;99679.19;5029868;27;97932;-84
2023/03/05 08:05:29;;;;;;;11.03;3.33;;;;;;;4.51;58.07;99698.16;5033214;27;96923;-85
2023/03/05 08:07:54;;;;;;;9.07;2.40;;;;;;;4.44;57.77;99688.75;5012738;27;100415;-82
2023/03/05 08:10:20;;;;;;;8.80;2.20;;;;;;;4.30;57.86;99674.28;5006077;27;100362;-86
2023/03/05 08:12:45;;;;;;;10.77;2.70;;;;;;;4.40;57.84;99698.34;5028505;27;96760;-85
2023/03/05 08:15:11;;;;;;;8.77;2.70;;;;;;;4.48;57.91;99700.78;5029969;27;97064;-90
2023/03/05 08:17:36;;;;;;;11.93;3.07;;;;;;;4.47;57.85;99696.47;5009190;27;101368;-90
2023/03/05 08:20:04;;;;;;;12.47;2.87;;;;;;;4.57;57.48;99713.63;5036315;27;97909;-87
2023/03/05 08:22:33;;;;;;;9.63;3.23;;;;;;;4.61;56.92;99704.03;5021096;27;97228;-83
2023/03/05 08:25:00;;;;;;;8.17;2.30;;;;;;;4.57;57.67;99705.84;5047281;27;97380;-83
2023/03/05 08:27:25;;;;;;;12.57;3.47;;;;;;;4.62;57.80;99716.97;5037078;27;98756;-82
2023/03/05 08:29:51;;;;;;;9.00;2.27;;;;;;;4.51;57.59;99711.16;5033182;27;97959;-84
2023/03/05 08:32:16;;;;;;;4.50;1.97;;;;;;;4.40;58.78;99708.75;5037602;27;96801;-82
2023/03/05 08:34:42;;;;;;;9.73;2.27;;;;;;;4.42;58.79;99713.91;5035919;27;97289;-83
2023/03/05 08:37:08;;;;;;;3.70;1.80;;;;;;;4.30;58.30;99710.66;5001314;27;100474;-84
2023/03/05 08:39:35;;;;;;;7.07;2.30;;;;;;;4.32;58.93;99721.00;5029081;27;97460;-84
2023/03/05 08:42:01;;;;;;;7.83;2.90;;;;;;;4.32;58.79;99719.25;5028450;27;97152;-83
2023/03/05 08:44:27;;;;;;;6.33;2.20;;;;;;;4.28;59.09;99694.22;5032076;27;97120;-83
2023/03/05 08:46:52;;;;;;;6.10;2.50;;;;;;;4.31;58.71;99703.72;5019558;27;97922;-83
2023/03/05 08:49:18;;;;;;;8.67;2.50;;;;;;;4.47;58.39;99712.06;5005953;27;101436;-79
2023/03/05 08:51:43;;;;;;;9.57;2.23;;;;;;;4.55;57.85;99712.78;5008729;27;96887;-84
2023/03/05 08:54:09;;;;;;;13.17;2.80;;;;;;;4.65;57.63;99716.06;5016550;27;97278;-81
2023/03/05 08:56:35;;;;;;;8.13;2.50;;;;;;;4.53;58.14;99689.41;4999249;27;101071;-83
2023/03/05 08:59:02;;;;;;;4.53;2.20;;;;;;;4.58;57.58;99680.69;5043981;27;97892;-81
2023/03/05 09:01:29;;;;;;;9.37;2.40;;;;;;;4.70;57.90;99703.84;5024793;27;96703;-84
2023/03/05 09:03:55;;;;;;;9.70;2.80;;;;;;;4.62;57.90;99690.97;5018590;27;96816;-83
2023/03/05 09:06:21;;;;;;;7.23;2.30;;;;;;;4.72;57.86;99692.53;5017882;27;101579;-84
2023/03/05 09:08:46;;;;;;;10.10;2.57;;;;;;;4.78;58.08;99696.75;5020134;27;101863;-84
2023/03/05 09:11:12;;;;;;;8.13;2.90;;;;;;;4.78;57.71;99698.50;5029457;27;97359;-81
2023/03/05 09:13:38;;;;;;;10.00;2.70;;;;;;;4.65;57.37;99680.50;5032859;27;97027;-81
2023/03/05 09:16:10;;;;;;;6.37;2.40;;;;;;;4.61;57.31;99683.22;5021593;27;101708;-77
2023/03/05 09:18:38;;;;;;;6.20;2.97;;;;;;;4.64;57.68;99706.56;5026345;27;98131;-82
2023/03/05 09:21:12;;;;;;;7.87;3.07;;;;;;;4.40;58.58;99684.50;5014265;27;97327;-82
2023/03/05 09:23:39;;;;;;;8.47;3.20;;;;;;;4.45;59.51;99701.72;5017982;27;97334;-81
2023/03/05 09:26:06;;;;;;;7.03;2.53;;;;;;;4.38;59.78;99694.91;5019405;27;101487;-84
2023/03/05 09:28:32;;;;;;;8.13;2.73;;;;;;;4.52;59.81;99699.84;5028168;27;97930;-85
2023/03/05 09:31:01;;;;;;;9.10;2.83;;;;;;;4.66;59.52;99702.19;5024871;27;97574;-85
2023/03/05 09:33:27;;;;;;;7.57;2.57;;;;;;;4.78;59.81;99691.53;5012280;27;97270;-82
2023/03/05 09:35:52;;;;;;;9.97;2.63;;;;;;;4.83;58.78;99678.44;5037367;27;101039;-84
2023/03/05 09:38:19;;;;;;;7.33;2.40;;;;;;;5.10;58.97;99703.03;5031011;27;97678;-83
2023/03/05 09:40:52;;;;;;;5.87;2.47;;;;;;;5.16;59.16;99695.94;5039962;27;97338;-81
2023/03/05 09:43:39;;;;;;;7.50;2.20;;;;;;;5.16;58.94;99703.75;5005972;27;97379;-84
2023/03/05 09:46:37;;;;;;;6.60;2.50;;;;;;;5.08;58.08;99697.84;5029976;27;101439;-82
2023/03/05 09:49:15;;;;;;;8.33;2.37;;;;;;;5.04;57.94;99692.75;5026188;27;98705;-82
2023/03/05 09:51:45;;;;;;;5.73;2.13;;;;;;;4.98;57.82;99683.31;5026308;27;97063;-85
2023/03/05 09:54:18;;;;;;;7.33;2.60;;;;;;;4.88;58.53;99669.63;5023275;27;97252;-83
2023/03/05 09:56:50;;;;;;;5.20;2.53;;;;;;;5.08;57.92;99686.56;5010096;27;101148;-83
2023/03/05 09:59:16;;;;;;;6.65;3.00;;;;;;;4.99;57.67;99659.88;5020766;27;97892;-86
2023/03/05 10:01:43;;;;;;;4.97;2.50;;;;;;;5.13;56.85;99679.53;5032922;27;97000;-81
2023/03/05 10:04:20;;;;;;;12.60;3.30;;;;;;;5.20;56.80;99671.53;5035858;27;98120;-83
2023/03/05 10:06:50;;;;;;;7.40;2.47;;;;;;;5.24;56.37;99667.16;5031467;27;97882;-82
2023/03/05 10:09:46;;;;;;;9.40;2.97;;;;;;;5.32;55.94;99666.94;5028697;27;101299;-82
2023/03/05 10:12:41;;;;;;;6.57;2.30;;;;;;;5.43;56.20;99660.59;5008364;27;97265;-82
2023/03/05 10:15:16;;;;;;;8.07;2.17;;;;;;;5.53;55.88;99663.03;5038991;27;97301;-83
2023/03/05 10:17:44;;;;;;;7.63;2.43;;;;;;;5.65;55.69;99652.31;5010669;27;101836;-83
2023/03/05 10:20:23;;;;;;;6.87;3.00;;;;;;;6.31;53.82;99659.31;5031655;27;98081;-82
2023/03/05 10:23:02;;;;;;;7.17;2.60;;;;;;;7.10;51.88;99639.66;5023778;27;96831;-82
2023/03/05 10:26:06;;;;;;;6.77;2.83;;;;;;;6.97;51.67;99640.91;5018816;27;97097;-83
2023/03/05 10:28:41;;;;;;;5.87;2.70;;;;;;;6.87;52.30;99632.50;5015841;27;98405;-82
2023/03/05 10:31:17;;;;;;;6.60;2.80;;;;;;;6.66;52.61;99628.78;5007983;27;97456;-83
2023/03/05 10:33:54;;;;;;;8.30;3.73;;;;;;;6.47;51.95;99625.84;4993153;27;97203;-83
2023/03/05 10:36:52;;;;;;;6.70;2.83;;;;;;;6.28;52.32;99630.72;5005428;28;96942;-84
2023/03/05 10:39:18;;;;;;;7.20;3.00;;;;;;;5.99;52.47;99605.44;4999647;27;101613;-84
2023/03/05 10:42:10;;;;;;;6.53;3.00;;;;;;;6.01;52.45;99615.81;5012270;27;101207;-83
2023/03/05 10:44:49;;;;;;;9.52;3.25;;;;;;;5.90;52.66;99624.75;5011137;27;96739;-83
2023/03/05 10:47:26;;;;;;;9.73;3.70;;;;;;;5.85;52.85;99625.75;4991079;27;96816;-83
2023/03/05 10:49:57;;;;;;;10.83;3.20;;;;;;;5.57;52.90;99596.94;5014756;27;101470;-83
2023/03/05 10:52:34;;;;;;;7.77;2.87;;;;;;;5.61;52.67;99625.50;5002753;27;101531;-82
2023/03/05 10:55:00;;;;;;;12.87;4.10;;;;;;;5.53;53.07;99622.22;5013881;27;97276;-82
2023/03/05 10:57:27;;;;;;;7.63;3.00;;;;;;;5.35;53.46;99594.88;5004935;27;97251;-82
2023/03/05 10:59:57;;;;;;;6.20;3.33;;;;;;;5.44;53.77;99617.22;5000345;27;101298;-83
2023/03/05 11:02:23;;;;;;;8.33;3.00;;;;;;;5.43;53.71;99621.56;5001293;27;100088;-83
2023/03/05 11:04:50;;;;;;;8.50;3.80;;;;;;;5.43;54.26;99623.31;5000115;27;96786;-83
2023/03/05 11:07:16;;;;;;;5.50;2.80;;;;;;;5.35;54.68;99618.31;5008951;27;96962;-83
2023/03/05 11:09:42;;;;;;;7.43;3.10;;;;;;;5.26;55.89;99615.91;4998751;27;101564;-82
2023/03/05 11:12:24;;;;;;;7.13;2.83;;;;;;;5.24;55.79;99616.84;4999469;27;101972;-82
2023/03/05 11:15:08;;;;;;;7.90;3.33;;;;;;;5.24;56.27;99609.03;5015568;27;97290;-82
2023/03/05 11:17:38;;;;;;;6.60;2.90;;;;;;;5.14;55.52;99590.19;5006207;28;96734;-80
2023/03/05 11:20:31;;;;;;;8.70;3.60;;;;;;;5.16;56.08;99586.66;4992714;27;101653;-82
2023/03/05 11:23:14;;;;;;;7.67;3.10;;;;;;;5.33;56.42;99609.69;5004935;27;97831;-83
2023/03/05 11:25:53;;;;;;;6.30;3.63;;;;;;;5.26;56.61;99584.66;5004254;27;97055;-82
2023/03/05 11:28:22;;;;;;;7.10;3.77;;;;;;;5.36;56.40;99599.19;5020705;27;97062;-83
2023/03/05 11:31:02;;;;;;;7.63;3.00;;;;;;;5.36;55.67;99585.31;5009278;27;101561;-82
2023/03/05 11:33:29;;;;;;;9.43;4.23;;;;;;;5.26;56.26;99569.06;5018274;27;101339;-82
2023/03/05 11:36:22;;;;;;;8.20;3.80;;;;;;;5.43;56.32;99592.94;4998141;28;97268;-82
2023/03/05 11:38:55;;;;;;;7.17;3.90;;;;;;;5.36;55.54;99573.16;4984257;27;97385;-81
2023/03/05 11:41:35;;;;;;;7.40;3.67;;;;;;;5.35;55.51;99581.00;5042350;27;97934;-81